TimeCST,TemperatureF,Dew PointF,Humidity,Sea Level PressureIn,VisibilityMPH,Wind Direction,Wind SpeedMPH,Gust SpeedMPH,PrecipitationIn,Events,Conditions,WindDirDegrees,DateUTC
12:15 AM,41.0,33.8,76,29.90,7.0,SE,8.1,-,N/A,,Overcast,140,2012-12-09 06:15:00
12:35 AM,41.0,33.8,76,29.89,7.0,SE,10.4,-,N/A,,Overcast,140,2012-12-09 06:35:00
1:15 AM,41.0,33.8,76,29.89,5.0,SE,9.2,-,N/A,,Haze,140,2012-12-09 07:15:00
1:35 AM,39.2,33.8,81,29.90,5.0,SSE,8.1,-,N/A,,Haze,150,2012-12-09 07:35:00
1:55 AM,39.2,33.8,81,29.89,5.0,SSE,6.9,-,N/A,,Haze,150,2012-12-09 07:55:00
2:15 AM,39.2,33.8,81,29.90,5.0,SSE,5.8,-,N/A,,Haze,160,2012-12-09 08:15:00
2:35 AM,39.2,33.8,81,29.90,5.0,SE,5.8,-,N/A,,Haze,140,2012-12-09 08:35:00
2:55 AM,39.2,33.8,81,29.89,5.0,Calm,Calm,-,N/A,,Haze,0,2012-12-09 08:55:00
3:15 AM,39.2,33.8,81,29.88,4.0,ESE,3.5,-,N/A,,Haze,120,2012-12-09 09:15:00
3:35 AM,39.2,33.8,81,29.88,4.0,Calm,Calm,-,N/A,,Haze,0,2012-12-09 09:35:00
3:55 AM,39.2,33.8,81,29.87,4.0,SE,3.5,-,N/A,,Haze,130,2012-12-09 09:55:00
4:15 AM,39.2,33.8,81,29.87,4.0,Calm,Calm,-,N/A,,Haze,0,2012-12-09 10:15:00
4:35 AM,39.2,33.8,81,29.86,4.0,SE,3.5,-,N/A,,Drizzle,130,2012-12-09 10:35:00
4:55 AM,39.2,33.8,81,29.86,2.5,Calm,Calm,-,N/A,Rain,Light Rain,0,2012-12-09 10:55:00
5:15 AM,39.2,33.8,81,29.87,3.0,Calm,Calm,-,0.02,Rain,Light Rain,0,2012-12-09 11:15:00
5:35 AM,39.2,35.6,87,29.87,2.5,Calm,Calm,-,0.02,,Light Drizzle,0,2012-12-09 11:35:00
5:55 AM,39.2,35.6,87,29.88,3.0,Calm,Calm,-,0.02,Rain,Light Rain,0,2012-12-09 11:55:00
6:15 AM,39.2,35.6,87,29.88,2.5,Calm,Calm,-,0.02,Rain,Rain,0,2012-12-09 12:15:00
6:35 AM,39.2,35.6,87,29.89,2.5,Calm,Calm,-,0.05,Rain,Rain,0,2012-12-09 12:35:00
6:55 AM,39.2,35.6,87,29.89,2.5,Calm,Calm,-,0.06,Rain,Light Rain,0,2012-12-09 12:55:00
7:15 AM,39.2,35.6,87,29.88,2.5,Calm,Calm,-,N/A,,Light Drizzle,0,2012-12-09 13:15:00
7:35 AM,39.2,35.6,87,29.89,3.0,SSW,3.5,-,N/A,,Haze,210,2012-12-09 13:35:00
7:55 AM,39.2,35.6,87,29.89,3.0,WSW,3.5,-,0.01,,Haze,250,2012-12-09 13:55:00
8:15 AM,39.2,35.6,87,29.89,1.8,Calm,Calm,-,N/A,,Haze,0,2012-12-09 14:15:00
8:35 AM,39.2,35.6,87,29.90,1.8,West,6.9,-,N/A,,Overcast,260,2012-12-09 14:35:00
8:55 AM,37.4,30.2,75,29.91,10.0,NW,16.1,24.2,N/A,,Overcast,310,2012-12-09 14:55:00
9:35 AM,37.4,28.4,70,29.93,10.0,NW,16.1,20.7,N/A,,Clear,310,2012-12-09 15:35:00
9:55 AM,37.4,28.4,70,29.95,10.0,NW,17.3,23.0,N/A,,Mostly Cloudy,310,2012-12-09 15:55:00
10:15 AM,35.6,26.6,70,29.96,10.0,NW,11.5,18.4,N/A,,Scattered Clouds,310,2012-12-09 16:15:00
10:35 AM,35.6,24.8,65,29.96,10.0,WNW,13.8,25.3,N/A,,Clear,290,2012-12-09 16:35:00
10:55 AM,33.8,24.8,70,29.97,10.0,WNW,13.8,18.4,N/A,,Clear,290,2012-12-09 16:55:00
11:15 AM,33.8,24.8,70,29.96,10.0,WNW,11.5,-,N/A,,Clear,290,2012-12-09 17:15:00
11:35 AM,32.0,21.2,64,29.96,10.0,WNW,12.7,21.9,N/A,,Clear,300,2012-12-09 17:35:00
11:55 AM,32.0,21.2,64,29.94,10.0,WNW,13.8,-,N/A,,Clear,290,2012-12-09 17:55:00
12:15 PM,33.8,21.2,60,29.96,10.0,NW,11.5,17.3,N/A,,Clear,310,2012-12-09 18:15:00
12:35 PM,33.8,21.2,60,29.95,10.0,WNW,15.0,20.7,N/A,,Clear,290,2012-12-09 18:35:00
12:55 PM,30.2,19.4,64,29.97,10.0,WNW,17.3,24.2,N/A,,Clear,290,2012-12-09 18:55:00
1:15 PM,30.2,17.6,60,29.96,10.0,WNW,18.4,27.6,N/A,,Clear,290,2012-12-09 19:15:00
1:35 PM,30.2,17.6,60,29.96,10.0,WNW,17.3,26.5,N/A,,Clear,290,2012-12-09 19:35:00
1:55 PM,30.2,17.6,60,29.97,10.0,WNW,17.3,26.5,N/A,,Clear,290,2012-12-09 19:55:00
2:15 PM,30.2,17.6,60,29.98,10.0,WNW,17.3,24.2,N/A,,Clear,300,2012-12-09 20:15:00
2:35 PM,30.2,17.6,60,29.98,10.0,NW,17.3,24.2,N/A,,Scattered Clouds,310,2012-12-09 20:35:00
2:55 PM,30.2,17.6,60,29.98,10.0,WNW,19.6,25.3,N/A,,Overcast,290,2012-12-09 20:55:00
3:15 PM,28.4,15.8,59,30.00,10.0,WNW,16.1,26.5,N/A,,Overcast,290,2012-12-09 21:15:00
3:35 PM,28.4,15.8,59,30.01,10.0,WNW,16.1,25.3,N/A,,Overcast,300,2012-12-09 21:35:00
3:55 PM,28.4,15.8,59,30.02,10.0,WNW,16.1,25.3,N/A,,Overcast,290,2012-12-09 21:55:00
4:15 PM,28.4,14.0,55,30.03,10.0,NW,16.1,26.5,N/A,,Overcast,310,2012-12-09 22:15:00
4:35 PM,26.6,14.0,59,30.03,10.0,NW,11.5,19.6,N/A,,Overcast,320,2012-12-09 22:35:00
4:55 PM,26.6,12.2,55,30.03,10.0,NW,16.1,29.9,N/A,,Overcast,310,2012-12-09 22:55:00
5:15 PM,24.8,12.2,59,30.03,10.0,NW,17.3,25.3,N/A,,Overcast,310,2012-12-09 23:15:00
5:35 PM,24.8,12.2,59,30.05,10.0,NW,15.0,24.2,N/A,,Overcast,310,2012-12-09 23:35:00
5:55 PM,24.8,10.4,54,30.06,10.0,NW,12.7,23.0,N/A,,Overcast,310,2012-12-09 23:55:00
6:15 PM,24.8,10.4,54,30.06,10.0,NW,12.7,24.2,N/A,,Overcast,310,2012-12-10 00:15:00
6:35 PM,23.0,10.4,59,30.07,10.0,NW,16.1,25.3,N/A,,Overcast,320,2012-12-10 00:35:00
6:55 PM,21.2,10.4,63,30.08,10.0,NW,17.3,29.9,N/A,,Overcast,310,2012-12-10 00:55:00
7:15 PM,21.2,10.4,63,30.07,10.0,NW,19.6,28.8,N/A,,Overcast,320,2012-12-10 01:15:00
7:35 PM,21.2,10.4,63,30.08,10.0,NW,13.8,23.0,N/A,,Overcast,320,2012-12-10 01:35:00
7:55 PM,21.2,10.4,63,30.09,10.0,NW,19.6,23.0,N/A,,Overcast,320,2012-12-10 01:55:00
8:15 PM,21.2,10.4,63,30.09,10.0,NW,18.4,25.3,N/A,,Overcast,320,2012-12-10 02:15:00
8:35 PM,21.2,10.4,63,30.09,10.0,NW,20.7,26.5,N/A,,Overcast,310,2012-12-10 02:35:00
8:55 PM,21.2,8.6,58,30.09,10.0,NNW,13.8,24.2,N/A,,Overcast,340,2012-12-10 02:55:00
9:15 PM,21.2,10.4,63,30.09,10.0,NNW,15.0,18.4,N/A,,Overcast,330,2012-12-10 03:15:00
9:35 PM,21.2,10.4,63,30.09,10.0,WNW,19.6,25.3,N/A,,Overcast,300,2012-12-10 03:35:00
9:55 PM,21.2,8.6,58,30.10,10.0,NNW,15.0,25.3,N/A,,Overcast,330,2012-12-10 03:55:00
10:15 PM,21.2,8.6,58,30.09,10.0,NW,18.4,21.9,N/A,,Overcast,320,2012-12-10 04:15:00
10:35 PM,19.4,8.6,63,30.10,10.0,NNW,15.0,27.6,N/A,,Overcast,330,2012-12-10 04:35:00
10:55 PM,19.4,8.6,63,30.10,10.0,NW,16.1,25.3,N/A,,Overcast,320,2012-12-10 04:55:00
11:15 PM,19.4,8.6,63,30.10,10.0,NW,15.0,23.0,N/A,,Overcast,310,2012-12-10 05:15:00
11:35 PM,19.4,8.6,63,30.09,10.0,NNW,16.1,23.0,N/A,,Overcast,330,2012-12-10 05:35:00
11:55 PM,19.4,8.6,63,30.10,10.0,NW,11.5,19.6,N/A,,Overcast,320,2012-12-10 05:55:00